sensor_id;sensor_type;location;lat;lon;timestamp;P1;P2;P0
44684;PMS5003;76140;45.696;8.652;2024-02-21T00:02:24;7;7;
44684;PMS5003;76140;45.696;8.652;2024-02-21T00:04:50;11;10;
44684;PMS5003;76140;45.696;8.652;2024-02-21T00:07:15;11;9;
44684;PMS5003;76140;45.696;8.652;2024-02-21T00:09:40;9;9;
44684;PMS5003;76140;45.696;8.652;2024-02-21T00:12:06;10;10;
44684;PMS5003;76140;45.696;8.652;2024-02-21T00:14:31;12;11;
44684;PMS5003;76140;45.696;8.652;2024-02-21T00:16:57;10;9;
44684;PMS5003;76140;45.696;8.652;2024-02-21T00:19:23;9;8;
44684;PMS5003;76140;45.696;8.652;2024-02-21T00:21:48;9;8;
44684;PMS5003;76140;45.696;8.652;2024-02-21T00:24:13;7;7;
44684;PMS5003;76140;45.696;8.652;2024-02-21T00:26:38;8;7;
44684;PMS5003;76140;45.696;8.652;2024-02-21T00:29:04;10;9;
44684;PMS5003;76140;45.696;8.652;2024-02-21T00:31:29;8;7;
44684;PMS5003;76140;45.696;8.652;2024-02-21T00:33:54;8;7;
44684;PMS5003;76140;45.696;8.652;2024-02-21T00:36:20;5;5;
44684;PMS5003;76140;45.696;8.652;2024-02-21T00:38:45;6;6;
44684;PMS5003;76140;45.696;8.652;2024-02-21T00:41:10;8;8;
44684;PMS5003;76140;45.696;8.652;2024-02-21T00:43:35;8;8;
44684;PMS5003;76140;45.696;8.652;2024-02-21T00:46:01;9;8;
44684;PMS5003;76140;45.696;8.652;2024-02-21T00:48:26;8;8;
44684;PMS5003;76140;45.696;8.652;2024-02-21T00:50:51;7;6;
44684;PMS5003;76140;45.696;8.652;2024-02-21T00:53:17;10;9;
44684;PMS5003;76140;45.696;8.652;2024-02-21T00:55:42;7;7;
44684;PMS5003;76140;45.696;8.652;2024-02-21T00:58:07;6;6;
44684;PMS5003;76140;45.696;8.652;2024-02-21T01:00:33;7;7;
44684;PMS5003;76140;45.696;8.652;2024-02-21T01:02:58;7;7;
44684;PMS5003;76140;45.696;8.652;2024-02-21T01:05:23;8;8;
44684;PMS5003;76140;45.696;8.652;2024-02-21T01:07:48;8;8;
44684;PMS5003;76140;45.696;8.652;2024-02-21T01:10:14;6;6;
44684;PMS5003;76140;45.696;8.652;2024-02-21T01:12:39;8;7;
44684;PMS5003;76140;45.696;8.652;2024-02-21T01:15:05;8;8;
44684;PMS5003;76140;45.696;8.652;2024-02-21T01:17:30;7;7;
44684;PMS5003;76140;45.696;8.652;2024-02-21T01:19:55;9;8;
44684;PMS5003;76140;45.696;8.652;2024-02-21T01:22:20;8;8;
44684;PMS5003;76140;45.696;8.652;2024-02-21T01:24:46;10;9;
44684;PMS5003;76140;45.696;8.652;2024-02-21T01:27:11;10;9;
44684;PMS5003;76140;45.696;8.652;2024-02-21T01:29:36;10;9;
44684;PMS5003;76140;45.696;8.652;2024-02-21T01:32:01;9;9;
44684;PMS5003;76140;45.696;8.652;2024-02-21T01:34:27;10;10;
44684;PMS5003;76140;45.696;8.652;2024-02-21T01:36:53;10;10;
44684;PMS5003;76140;45.696;8.652;2024-02-21T01:39:18;9;9;
44684;PMS5003;76140;45.696;8.652;2024-02-21T01:41:44;7;7;
44684;PMS5003;76140;45.696;8.652;2024-02-21T01:44:09;7;7;
44684;PMS5003;76140;45.696;8.652;2024-02-21T01:46:35;8;8;
44684;PMS5003;76140;45.696;8.652;2024-02-21T01:49:00;9;9;
44684;PMS5003;76140;45.696;8.652;2024-02-21T01:51:25;9;8;
44684;PMS5003;76140;45.696;8.652;2024-02-21T01:53:51;6;6;
44684;PMS5003;76140;45.696;8.652;2024-02-21T01:56:16;8;8;
44684;PMS5003;76140;45.696;8.652;2024-02-21T01:58:41;9;9;
44684;PMS5003;76140;45.696;8.652;2024-02-21T02:01:06;7;7;
44684;PMS5003;76140;45.696;8.652;2024-02-21T02:03:31;8;7;
44684;PMS5003;76140;45.696;8.652;2024-02-21T02:05:57;8;7;
44684;PMS5003;76140;45.696;8.652;2024-02-21T02:08:22;7;6;
44684;PMS5003;76140;45.696;8.652;2024-02-21T02:10:48;9;9;
44684;PMS5003;76140;45.696;8.652;2024-02-21T02:13:13;8;8;
44684;PMS5003;76140;45.696;8.652;2024-02-21T02:15:39;9;8;
44684;PMS5003;76140;45.696;8.652;2024-02-21T02:18:04;7;7;
44684;PMS5003;76140;45.696;8.652;2024-02-21T02:20:29;9;9;
44684;PMS5003;76140;45.696;8.652;2024-02-21T02:22:55;10;9;
44684;PMS5003;76140;45.696;8.652;2024-02-21T02:25:20;10;7;
44684;PMS5003;76140;45.696;8.652;2024-02-21T02:27:45;8;8;
44684;PMS5003;76140;45.696;8.652;2024-02-21T02:30:11;9;9;
44684;PMS5003;76140;45.696;8.652;2024-02-21T02:32:36;9;9;
44684;PMS5003;76140;45.696;8.652;2024-02-21T02:35:02;9;8;
44684;PMS5003;76140;45.696;8.652;2024-02-21T02:37:28;9;9;
44684;PMS5003;76140;45.696;8.652;2024-02-21T02:39:53;10;8;
44684;PMS5003;76140;45.696;8.652;2024-02-21T02:42:18;8;7;
44684;PMS5003;76140;45.696;8.652;2024-02-21T02:44:44;7;7;
44684;PMS5003;76140;45.696;8.652;2024-02-21T02:47:09;9;8;
44684;PMS5003;76140;45.696;8.652;2024-02-21T02:49:34;11;10;
44684;PMS5003;76140;45.696;8.652;2024-02-21T02:52:00;9;7;
44684;PMS5003;76140;45.696;8.652;2024-02-21T02:54:25;10;9;
44684;PMS5003;76140;45.696;8.652;2024-02-21T02:56:50;7;7;
44684;PMS5003;76140;45.696;8.652;2024-02-21T02:59:16;9;8;
44684;PMS5003;76140;45.696;8.652;2024-02-21T03:01:41;8;8;
44684;PMS5003;76140;45.696;8.652;2024-02-21T03:04:07;7;7;
44684;PMS5003;76140;45.696;8.652;2024-02-21T03:06:32;7;7;
44684;PMS5003;76140;45.696;8.652;2024-02-21T03:08:57;6;6;
44684;PMS5003;76140;45.696;8.652;2024-02-21T03:11:23;6;6;
44684;PMS5003;76140;45.696;8.652;2024-02-21T03:13:48;7;6;
44684;PMS5003;76140;45.696;8.652;2024-02-21T03:16:16;5;5;
44684;PMS5003;76140;45.696;8.652;2024-02-21T03:18:39;5;5;
44684;PMS5003;76140;45.696;8.652;2024-02-21T03:21:04;5;5;
44684;PMS5003;76140;45.696;8.652;2024-02-21T03:23:29;5;5;
44684;PMS5003;76140;45.696;8.652;2024-02-21T03:25:55;6;5;
44684;PMS5003;76140;45.696;8.652;2024-02-21T03:28:20;8;8;
44684;PMS5003;76140;45.696;8.652;2024-02-21T03:30:45;8;8;
44684;PMS5003;76140;45.696;8.652;2024-02-21T03:33:11;8;8;
44684;PMS5003;76140;45.696;8.652;2024-02-21T03:35:36;9;9;
44684;PMS5003;76140;45.696;8.652;2024-02-21T03:38:01;8;8;
44684;PMS5003;76140;45.696;8.652;2024-02-21T03:40:27;9;8;
44684;PMS5003;76140;45.696;8.652;2024-02-21T03:42:52;10;10;
44684;PMS5003;76140;45.696;8.652;2024-02-21T03:45:18;9;8;
44684;PMS5003;76140;45.696;8.652;2024-02-21T03:47:43;7;7;
44684;PMS5003;76140;45.696;8.652;2024-02-21T03:50:09;8;8;
44684;PMS5003;76140;45.696;8.652;2024-02-21T03:52:34;8;8;
44684;PMS5003;76140;45.696;8.652;2024-02-21T03:55:00;16;16;
44684;PMS5003;76140;45.696;8.652;2024-02-21T03:57:25;18;17;
44684;PMS5003;76140;45.696;8.652;2024-02-21T03:59:51;20;19;
44684;PMS5003;76140;45.696;8.652;2024-02-21T04:02:16;23;23;
44684;PMS5003;76140;45.696;8.652;2024-02-21T04:04:42;16;15;
44684;PMS5003;76140;45.696;8.652;2024-02-21T04:07:06;26;24;
44684;PMS5003;76140;45.696;8.652;2024-02-21T04:09:32;30;30;
44684;PMS5003;76140;45.696;8.652;2024-02-21T04:11:57;10;10;
44684;PMS5003;76140;45.696;8.652;2024-02-21T04:14:22;36;35;
44684;PMS5003;76140;45.696;8.652;2024-02-21T04:16:47;14;14;
44684;PMS5003;76140;45.696;8.652;2024-02-21T04:19:13;40;40;
44684;PMS5003;76140;45.696;8.652;2024-02-21T04:21:38;38;37;
44684;PMS5003;76140;45.696;8.652;2024-02-21T04:24:03;63;62;
44684;PMS5003;76140;45.696;8.652;2024-02-21T04:26:28;52;51;
44684;PMS5003;76140;45.696;8.652;2024-02-21T04:28:54;49;48;
44684;PMS5003;76140;45.696;8.652;2024-02-21T04:31:19;21;21;
44684;PMS5003;76140;45.696;8.652;2024-02-21T04:33:44;72;72;
44684;PMS5003;76140;45.696;8.652;2024-02-21T04:36:10;98;98;
44684;PMS5003;76140;45.696;8.652;2024-02-21T04:38:36;108;108;
44684;PMS5003;76140;45.696;8.652;2024-02-21T04:41:01;117;117;
44684;PMS5003;76140;45.696;8.652;2024-02-21T04:43:27;118;118;
44684;PMS5003;76140;45.696;8.652;2024-02-21T04:45:53;122;122;
44684;PMS5003;76140;45.696;8.652;2024-02-21T04:48:18;64;63;
44684;PMS5003;76140;45.696;8.652;2024-02-21T04:50:44;91;91;
44684;PMS5003;76140;45.696;8.652;2024-02-21T04:53:09;62;61;
44684;PMS5003;76140;45.696;8.652;2024-02-21T04:55:34;115;115;
44684;PMS5003;76140;45.696;8.652;2024-02-21T04:58:00;28;28;
44684;PMS5003;76140;45.696;8.652;2024-02-21T05:00:25;28;28;
44684;PMS5003;76140;45.696;8.652;2024-02-21T05:02:50;88;87;
44684;PMS5003;76140;45.696;8.652;2024-02-21T05:05:16;22;20;
44684;PMS5003;76140;45.696;8.652;2024-02-21T05:07:41;16;16;
44684;PMS5003;76140;45.696;8.652;2024-02-21T05:10:07;13;13;
44684;PMS5003;76140;45.696;8.652;2024-02-21T05:12:32;12;11;
44684;PMS5003;76140;45.696;8.652;2024-02-21T05:14:57;12;12;
44684;PMS5003;76140;45.696;8.652;2024-02-21T05:17:23;14;14;
44684;PMS5003;76140;45.696;8.652;2024-02-21T05:19:48;12;12;
44684;PMS5003;76140;45.696;8.652;2024-02-21T05:22:14;11;11;
44684;PMS5003;76140;45.696;8.652;2024-02-21T05:24:39;12;11;
44684;PMS5003;76140;45.696;8.652;2024-02-21T05:27:04;16;16;
44684;PMS5003;76140;45.696;8.652;2024-02-21T05:29:30;25;24;
44684;PMS5003;76140;45.696;8.652;2024-02-21T05:31:56;41;40;
44684;PMS5003;76140;45.696;8.652;2024-02-21T05:34:21;11;10;
44684;PMS5003;76140;45.696;8.652;2024-02-21T05:36:47;31;29;
44684;PMS5003;76140;45.696;8.652;2024-02-21T05:39:12;62;61;
44684;PMS5003;76140;45.696;8.652;2024-02-21T05:41:37;84;84;
44684;PMS5003;76140;45.696;8.652;2024-02-21T05:44:03;66;66;
44684;PMS5003;76140;45.696;8.652;2024-02-21T05:46:28;61;60;
44684;PMS5003;76140;45.696;8.652;2024-02-21T05:48:54;58;58;
44684;PMS5003;76140;45.696;8.652;2024-02-21T05:51:19;115;115;
44684;PMS5003;76140;45.696;8.652;2024-02-21T05:53:45;156;156;
44684;PMS5003;76140;45.696;8.652;2024-02-21T05:56:10;70;70;
44684;PMS5003;76140;45.696;8.652;2024-02-21T05:58:36;12;12;
44684;PMS5003;76140;45.696;8.652;2024-02-21T06:01:01;15;15;
44684;PMS5003;76140;45.696;8.652;2024-02-21T06:03:28;167;167;
44684;PMS5003;76140;45.696;8.652;2024-02-21T06:05:52;92;92;
44684;PMS5003;76140;45.696;8.652;2024-02-21T06:08:18;80;80;
44684;PMS5003;76140;45.696;8.652;2024-02-21T06:10:43;24;24;
44684;PMS5003;76140;45.696;8.652;2024-02-21T06:13:09;29;29;
44684;PMS5003;76140;45.696;8.652;2024-02-21T06:15:35;72;72;
44684;PMS5003;76140;45.696;8.652;2024-02-21T06:18:00;89;87;
44684;PMS5003;76140;45.696;8.652;2024-02-21T06:20:26;92;92;
44684;PMS5003;76140;45.696;8.652;2024-02-21T06:22:51;62;62;
44684;PMS5003;76140;45.696;8.652;2024-02-21T06:25:17;81;78;
44684;PMS5003;76140;45.696;8.652;2024-02-21T06:27:43;24;24;
44684;PMS5003;76140;45.696;8.652;2024-02-21T06:30:08;32;32;
44684;PMS5003;76140;45.696;8.652;2024-02-21T06:32:33;31;31;
44684;PMS5003;76140;45.696;8.652;2024-02-21T06:34:58;25;25;
44684;PMS5003;76140;45.696;8.652;2024-02-21T06:37:24;23;23;
44684;PMS5003;76140;45.696;8.652;2024-02-21T06:39:49;22;21;
44684;PMS5003;76140;45.696;8.652;2024-02-21T06:42:14;11;10;
44684;PMS5003;76140;45.696;8.652;2024-02-21T06:44:40;11;10;
44684;PMS5003;76140;45.696;8.652;2024-02-21T06:47:05;5;5;
44684;PMS5003;76140;45.696;8.652;2024-02-21T06:49:30;7;7;
44684;PMS5003;76140;45.696;8.652;2024-02-21T06:51:56;5;4;
44684;PMS5003;76140;45.696;8.652;2024-02-21T06:54:21;5;5;
44684;PMS5003;76140;45.696;8.652;2024-02-21T06:56:46;6;6;
44684;PMS5003;76140;45.696;8.652;2024-02-21T06:59:12;6;6;
44684;PMS5003;76140;45.696;8.652;2024-02-21T07:01:37;6;6;
44684;PMS5003;76140;45.696;8.652;2024-02-21T07:04:02;4;4;
44684;PMS5003;76140;45.696;8.652;2024-02-21T07:06:28;5;5;
44684;PMS5003;76140;45.696;8.652;2024-02-21T07:08:53;4;4;
44684;PMS5003;76140;45.696;8.652;2024-02-21T07:11:18;5;5;
44684;PMS5003;76140;45.696;8.652;2024-02-21T07:13:44;7;6;
44684;PMS5003;76140;45.696;8.652;2024-02-21T07:16:09;5;5;
44684;PMS5003;76140;45.696;8.652;2024-02-21T07:18:34;5;5;
44684;PMS5003;76140;45.696;8.652;2024-02-21T07:21:00;4;4;
44684;PMS5003;76140;45.696;8.652;2024-02-21T07:23:25;6;6;
44684;PMS5003;76140;45.696;8.652;2024-02-21T07:25:50;5;5;
44684;PMS5003;76140;45.696;8.652;2024-02-21T07:28:16;6;5;
44684;PMS5003;76140;45.696;8.652;2024-02-21T07:30:41;4;4;
44684;PMS5003;76140;45.696;8.652;2024-02-21T07:33:06;6;6;
44684;PMS5003;76140;45.696;8.652;2024-02-21T07:35:31;8;7;
44684;PMS5003;76140;45.696;8.652;2024-02-21T07:37:57;8;8;
44684;PMS5003;76140;45.696;8.652;2024-02-21T07:40:27;7;7;
44684;PMS5003;76140;45.696;8.652;2024-02-21T07:42:47;8;8;
44684;PMS5003;76140;45.696;8.652;2024-02-21T07:45:12;10;7;
44684;PMS5003;76140;45.696;8.652;2024-02-21T07:47:38;7;6;
44684;PMS5003;76140;45.696;8.652;2024-02-21T07:50:04;9;8;
44684;PMS5003;76140;45.696;8.652;2024-02-21T07:52:29;8;8;
44684;PMS5003;76140;45.696;8.652;2024-02-21T07:54:54;10;10;
44684;PMS5003;76140;45.696;8.652;2024-02-21T07:57:19;14;12;
44684;PMS5003;76140;45.696;8.652;2024-02-21T07:59:44;13;12;
44684;PMS5003;76140;45.696;8.652;2024-02-21T08:02:09;14;13;
44684;PMS5003;76140;45.696;8.652;2024-02-21T08:04:35;19;18;
44684;PMS5003;76140;45.696;8.652;2024-02-21T08:07:00;18;16;
44684;PMS5003;76140;45.696;8.652;2024-02-21T08:09:25;13;13;
44684;PMS5003;76140;45.696;8.652;2024-02-21T08:11:51;13;13;
44684;PMS5003;76140;45.696;8.652;2024-02-21T08:14:16;13;13;
44684;PMS5003;76140;45.696;8.652;2024-02-21T08:16:42;13;12;
44684;PMS5003;76140;45.696;8.652;2024-02-21T08:19:07;13;13;
44684;PMS5003;76140;45.696;8.652;2024-02-21T08:21:32;12;11;
44684;PMS5003;76140;45.696;8.652;2024-02-21T08:23:57;15;13;
44684;PMS5003;76140;45.696;8.652;2024-02-21T08:26:23;10;10;
44684;PMS5003;76140;45.696;8.652;2024-02-21T08:28:48;12;12;
44684;PMS5003;76140;45.696;8.652;2024-02-21T08:31:18;12;12;
44684;PMS5003;76140;45.696;8.652;2024-02-21T08:33:39;25;25;
44684;PMS5003;76140;45.696;8.652;2024-02-21T08:36:04;12;12;
44684;PMS5003;76140;45.696;8.652;2024-02-21T08:38:29;12;11;
44684;PMS5003;76140;45.696;8.652;2024-02-21T08:40:54;10;10;
44684;PMS5003;76140;45.696;8.652;2024-02-21T08:43:19;13;11;
44684;PMS5003;76140;45.696;8.652;2024-02-21T08:45:44;12;11;
44684;PMS5003;76140;45.696;8.652;2024-02-21T08:48:10;27;27;
44684;PMS5003;76140;45.696;8.652;2024-02-21T08:50:35;8;8;
44684;PMS5003;76140;45.696;8.652;2024-02-21T08:53:00;9;9;
44684;PMS5003;76140;45.696;8.652;2024-02-21T08:55:25;6;6;
44684;PMS5003;76140;45.696;8.652;2024-02-21T08:57:50;8;8;
44684;PMS5003;76140;45.696;8.652;2024-02-21T09:00:16;8;8;
44684;PMS5003;76140;45.696;8.652;2024-02-21T09:02:41;8;6;
44684;PMS5003;76140;45.696;8.652;2024-02-21T09:05:06;8;7;
44684;PMS5003;76140;45.696;8.652;2024-02-21T09:07:31;8;8;
44684;PMS5003;76140;45.696;8.652;2024-02-21T09:09:56;7;6;
44684;PMS5003;76140;45.696;8.652;2024-02-21T09:12:21;8;8;
44684;PMS5003;76140;45.696;8.652;2024-02-21T09:14:46;9;8;
44684;PMS5003;76140;45.696;8.652;2024-02-21T09:17:11;10;10;
44684;PMS5003;76140;45.696;8.652;2024-02-21T09:19:36;8;8;
44684;PMS5003;76140;45.696;8.652;2024-02-21T09:22:01;6;6;
44684;PMS5003;76140;45.696;8.652;2024-02-21T09:24:26;8;8;
44684;PMS5003;76140;45.696;8.652;2024-02-21T09:26:51;5;5;
44684;PMS5003;76140;45.696;8.652;2024-02-21T09:29:17;8;8;
44684;PMS5003;76140;45.696;8.652;2024-02-21T09:31:42;8;8;
44684;PMS5003;76140;45.696;8.652;2024-02-21T09:34:07;8;8;
44684;PMS5003;76140;45.696;8.652;2024-02-21T09:36:32;8;8;
44684;PMS5003;76140;45.696;8.652;2024-02-21T09:38:57;10;10;
44684;PMS5003;76140;45.696;8.652;2024-02-21T09:41:24;10;10;
44684;PMS5003;76140;45.696;8.652;2024-02-21T09:43:47;11;11;
44684;PMS5003;76140;45.696;8.652;2024-02-21T09:46:13;12;12;
44684;PMS5003;76140;45.696;8.652;2024-02-21T09:48:41;10;9;
44684;PMS5003;76140;45.696;8.652;2024-02-21T09:51:03;19;17;
44684;PMS5003;76140;45.696;8.652;2024-02-21T09:53:28;15;14;
44684;PMS5003;76140;45.696;8.652;2024-02-21T09:55:53;16;16;
44684;PMS5003;76140;45.696;8.652;2024-02-21T09:58:19;20;20;
44684;PMS5003;76140;45.696;8.652;2024-02-21T10:00:44;27;26;
44684;PMS5003;76140;45.696;8.652;2024-02-21T10:03:10;27;27;
44684;PMS5003;76140;45.696;8.652;2024-02-21T10:05:35;17;17;
44684;PMS5003;76140;45.696;8.652;2024-02-21T10:08:00;25;23;
44684;PMS5003;76140;45.696;8.652;2024-02-21T10:10:25;30;26;
44684;PMS5003;76140;45.696;8.652;2024-02-21T10:12:51;29;26;
44684;PMS5003;76140;45.696;8.652;2024-02-21T10:15:19;26;26;
44684;PMS5003;76140;45.696;8.652;2024-02-21T10:17:42;28;27;
44684;PMS5003;76140;45.696;8.652;2024-02-21T10:20:08;35;33;
44684;PMS5003;76140;45.696;8.652;2024-02-21T10:22:33;42;39;
44684;PMS5003;76140;45.696;8.652;2024-02-21T10:25:06;44;40;
44684;PMS5003;76140;45.696;8.652;2024-02-21T10:27:24;39;37;
44684;PMS5003;76140;45.696;8.652;2024-02-21T10:29:49;37;34;
44684;PMS5003;76140;45.696;8.652;2024-02-21T10:32:15;45;43;
44684;PMS5003;76140;45.696;8.652;2024-02-21T10:34:41;80;76;
44684;PMS5003;76140;45.696;8.652;2024-02-21T10:37:07;91;86;
44684;PMS5003;76140;45.696;8.652;2024-02-21T10:39:32;85;80;
44684;PMS5003;76140;45.696;8.652;2024-02-21T10:41:58;91;86;
44684;PMS5003;76140;45.696;8.652;2024-02-21T10:44:22;82;79;
44684;PMS5003;76140;45.696;8.652;2024-02-21T10:46:48;80;75;
44684;PMS5003;76140;45.696;8.652;2024-02-21T10:49:16;88;84;
44684;PMS5003;76140;45.696;8.652;2024-02-21T10:51:40;95;88;
44684;PMS5003;76140;45.696;8.652;2024-02-21T10:54:08;86;79;
44684;PMS5003;76140;45.696;8.652;2024-02-21T10:56:30;83;78;
44684;PMS5003;76140;45.696;8.652;2024-02-21T10:58:56;94;87;
44684;PMS5003;76140;45.696;8.652;2024-02-21T11:01:21;79;76;
44684;PMS5003;76140;45.696;8.652;2024-02-21T11:03:46;83;77;
44684;PMS5003;76140;45.696;8.652;2024-02-21T11:06:11;81;75;
44684;PMS5003;76140;45.696;8.652;2024-02-21T11:08:37;85;80;
44684;PMS5003;76140;45.696;8.652;2024-02-21T11:11:03;90;82;
44684;PMS5003;76140;45.696;8.652;2024-02-21T11:13:31;94;88;
44684;PMS5003;76140;45.696;8.652;2024-02-21T11:15:53;102;96;
44684;PMS5003;76140;45.696;8.652;2024-02-21T11:18:23;107;99;
44684;PMS5003;76140;45.696;8.652;2024-02-21T11:20:49;97;88;
44684;PMS5003;76140;45.696;8.652;2024-02-21T11:23:10;100;90;
44684;PMS5003;76140;45.696;8.652;2024-02-21T11:25:36;103;85;
44684;PMS5003;76140;45.696;8.652;2024-02-21T11:28:02;103;93;
44684;PMS5003;76140;45.696;8.652;2024-02-21T11:30:27;97;87;
44684;PMS5003;76140;45.696;8.652;2024-02-21T11:32:58;103;94;
44684;PMS5003;76140;45.696;8.652;2024-02-21T11:35:19;118;109;
44684;PMS5003;76140;45.696;8.652;2024-02-21T11:37:44;97;91;
44684;PMS5003;76140;45.696;8.652;2024-02-21T11:40:09;96;83;
44684;PMS5003;76140;45.696;8.652;2024-02-21T11:42:35;106;100;
44684;PMS5003;76140;45.696;8.652;2024-02-21T11:45:00;99;89;
44684;PMS5003;76140;45.696;8.652;2024-02-21T11:47:25;96;87;
44684;PMS5003;76140;45.696;8.652;2024-02-21T11:49:50;111;100;
44684;PMS5003;76140;45.696;8.652;2024-02-21T11:52:16;98;89;
44684;PMS5003;76140;45.696;8.652;2024-02-21T11:54:41;100;92;
44684;PMS5003;76140;45.696;8.652;2024-02-21T11:57:07;109;99;
44684;PMS5003;76140;45.696;8.652;2024-02-21T11:59:33;97;89;
44684;PMS5003;76140;45.696;8.652;2024-02-21T12:01:58;99;93;
44684;PMS5003;76140;45.696;8.652;2024-02-21T12:04:23;116;102;
44684;PMS5003;76140;45.696;8.652;2024-02-21T12:06:49;97;90;
44684;PMS5003;76140;45.696;8.652;2024-02-21T12:09:15;114;103;
44684;PMS5003;76140;45.696;8.652;2024-02-21T12:11:40;102;90;
44684;PMS5003;76140;45.696;8.652;2024-02-21T12:14:05;108;94;
44684;PMS5003;76140;45.696;8.652;2024-02-21T12:16:32;96;89;
44684;PMS5003;76140;45.696;8.652;2024-02-21T12:18:56;104;98;
44684;PMS5003;76140;45.696;8.652;2024-02-21T12:21:23;106;99;
44684;PMS5003;76140;45.696;8.652;2024-02-21T12:23:47;117;106;
44684;PMS5003;76140;45.696;8.652;2024-02-21T12:26:12;126;113;
44684;PMS5003;76140;45.696;8.652;2024-02-21T12:28:37;107;97;
44684;PMS5003;76140;45.696;8.652;2024-02-21T12:31:03;144;132;
44684;PMS5003;76140;45.696;8.652;2024-02-21T12:33:28;120;111;
44684;PMS5003;76140;45.696;8.652;2024-02-21T12:35:54;104;100;
44684;PMS5003;76140;45.696;8.652;2024-02-21T12:38:19;100;94;
44684;PMS5003;76140;45.696;8.652;2024-02-21T12:40:45;121;111;
44684;PMS5003;76140;45.696;8.652;2024-02-21T12:43:10;93;92;
44684;PMS5003;76140;45.696;8.652;2024-02-21T12:45:36;93;86;
44684;PMS5003;76140;45.696;8.652;2024-02-21T12:48:01;101;92;
44684;PMS5003;76140;45.696;8.652;2024-02-21T12:50:26;100;92;
44684;PMS5003;76140;45.696;8.652;2024-02-21T12:52:52;114;109;
44684;PMS5003;76140;45.696;8.652;2024-02-21T12:55:17;118;102;
44684;PMS5003;76140;45.696;8.652;2024-02-21T12:57:42;107;97;
44684;PMS5003;76140;45.696;8.652;2024-02-21T13:00:08;110;102;
44684;PMS5003;76140;45.696;8.652;2024-02-21T13:02:33;104;94;
44684;PMS5003;76140;45.696;8.652;2024-02-21T13:04:58;117;102;
44684;PMS5003;76140;45.696;8.652;2024-02-21T13:07:24;120;112;
44684;PMS5003;76140;45.696;8.652;2024-02-21T13:09:50;149;140;
44684;PMS5003;76140;45.696;8.652;2024-02-21T13:12:15;107;101;
44684;PMS5003;76140;45.696;8.652;2024-02-21T13:14:40;113;101;
44684;PMS5003;76140;45.696;8.652;2024-02-21T13:17:05;125;116;
44684;PMS5003;76140;45.696;8.652;2024-02-21T13:19:31;107;101;
44684;PMS5003;76140;45.696;8.652;2024-02-21T13:21:56;114;102;
44684;PMS5003;76140;45.696;8.652;2024-02-21T13:24:21;110;104;
44684;PMS5003;76140;45.696;8.652;2024-02-21T13:26:47;107;99;
44684;PMS5003;76140;45.696;8.652;2024-02-21T13:29:13;107;100;
44684;PMS5003;76140;45.696;8.652;2024-02-21T13:31:38;108;98;
44684;PMS5003;76140;45.696;8.652;2024-02-21T13:34:04;125;115;
44684;PMS5003;76140;45.696;8.652;2024-02-21T13:36:29;114;103;
44684;PMS5003;76140;45.696;8.652;2024-02-21T13:38:54;104;97;
44684;PMS5003;76140;45.696;8.652;2024-02-21T13:41:20;103;92;
44684;PMS5003;76140;45.696;8.652;2024-02-21T13:43:45;108;101;
44684;PMS5003;76140;45.696;8.652;2024-02-21T13:46:11;109;102;
44684;PMS5003;76140;45.696;8.652;2024-02-21T13:48:37;106;97;
44684;PMS5003;76140;45.696;8.652;2024-02-21T13:51:02;113;105;
44684;PMS5003;76140;45.696;8.652;2024-02-21T13:53:27;122;104;
44684;PMS5003;76140;45.696;8.652;2024-02-21T13:55:53;116;104;
44684;PMS5003;76140;45.696;8.652;2024-02-21T13:58:18;115;104;
44684;PMS5003;76140;45.696;8.652;2024-02-21T14:00:43;107;98;
44684;PMS5003;76140;45.696;8.652;2024-02-21T14:03:09;116;99;
44684;PMS5003;76140;45.696;8.652;2024-02-21T14:05:34;110;100;
44684;PMS5003;76140;45.696;8.652;2024-02-21T14:07:59;108;98;
44684;PMS5003;76140;45.696;8.652;2024-02-21T14:10:24;108;101;
44684;PMS5003;76140;45.696;8.652;2024-02-21T14:12:54;107;98;
44684;PMS5003;76140;45.696;8.652;2024-02-21T14:15:15;112;103;
44684;PMS5003;76140;45.696;8.652;2024-02-21T14:17:41;112;99;
44684;PMS5003;76140;45.696;8.652;2024-02-21T14:20:07;121;106;
44684;PMS5003;76140;45.696;8.652;2024-02-21T14:22:32;115;105;
44684;PMS5003;76140;45.696;8.652;2024-02-21T14:24:57;106;102;
44684;PMS5003;76140;45.696;8.652;2024-02-21T14:27:23;116;105;
44684;PMS5003;76140;45.696;8.652;2024-02-21T14:29:48;110;105;
44684;PMS5003;76140;45.696;8.652;2024-02-21T14:32:13;106;99;
44684;PMS5003;76140;45.696;8.652;2024-02-21T14:34:38;106;95;
44684;PMS5003;76140;45.696;8.652;2024-02-21T14:37:03;105;94;
44684;PMS5003;76140;45.696;8.652;2024-02-21T14:39:28;100;95;
44684;PMS5003;76140;45.696;8.652;2024-02-21T14:41:54;100;87;
44684;PMS5003;76140;45.696;8.652;2024-02-21T14:44:20;107;99;
44684;PMS5003;76140;45.696;8.652;2024-02-21T14:46:45;114;103;
44684;PMS5003;76140;45.696;8.652;2024-02-21T14:49:11;112;106;
44684;PMS5003;76140;45.696;8.652;2024-02-21T14:51:36;108;94;
44684;PMS5003;76140;45.696;8.652;2024-02-21T14:54:02;109;99;
44684;PMS5003;76140;45.696;8.652;2024-02-21T14:56:27;108;98;
44684;PMS5003;76140;45.696;8.652;2024-02-21T14:58:53;116;107;
44684;PMS5003;76140;45.696;8.652;2024-02-21T15:01:19;111;97;
44684;PMS5003;76140;45.696;8.652;2024-02-21T15:03:44;120;103;
44684;PMS5003;76140;45.696;8.652;2024-02-21T15:06:09;118;105;
44684;PMS5003;76140;45.696;8.652;2024-02-21T15:08:35;117;105;
44684;PMS5003;76140;45.696;8.652;2024-02-21T15:11:01;116;101;
44684;PMS5003;76140;45.696;8.652;2024-02-21T15:13:26;106;98;
44684;PMS5003;76140;45.696;8.652;2024-02-21T15:15:52;126;112;
44684;PMS5003;76140;45.696;8.652;2024-02-21T15:18:18;111;101;
44684;PMS5003;76140;45.696;8.652;2024-02-21T15:20:43;121;108;
44684;PMS5003;76140;45.696;8.652;2024-02-21T15:23:08;116;110;
44684;PMS5003;76140;45.696;8.652;2024-02-21T15:25:33;124;109;
44684;PMS5003;76140;45.696;8.652;2024-02-21T15:27:58;112;106;
44684;PMS5003;76140;45.696;8.652;2024-02-21T15:30:23;120;106;
44684;PMS5003;76140;45.696;8.652;2024-02-21T15:32:50;130;114;
44684;PMS5003;76140;45.696;8.652;2024-02-21T15:35:15;130;116;
44684;PMS5003;76140;45.696;8.652;2024-02-21T15:37:40;120;109;
44684;PMS5003;76140;45.696;8.652;2024-02-21T15:40:06;126;114;
44684;PMS5003;76140;45.696;8.652;2024-02-21T15:42:31;131;125;
44684;PMS5003;76140;45.696;8.652;2024-02-21T15:44:56;112;102;
44684;PMS5003;76140;45.696;8.652;2024-02-21T15:47:21;120;107;
44684;PMS5003;76140;45.696;8.652;2024-02-21T15:49:47;120;112;
44684;PMS5003;76140;45.696;8.652;2024-02-21T15:52:12;123;110;
44684;PMS5003;76140;45.696;8.652;2024-02-21T15:54:38;117;109;
44684;PMS5003;76140;45.696;8.652;2024-02-21T15:57:04;132;116;
44684;PMS5003;76140;45.696;8.652;2024-02-21T15:59:28;107;102;
44684;PMS5003;76140;45.696;8.652;2024-02-21T16:01:54;130;117;
44684;PMS5003;76140;45.696;8.652;2024-02-21T16:04:20;121;111;
44684;PMS5003;76140;45.696;8.652;2024-02-21T16:06:45;137;125;
44684;PMS5003;76140;45.696;8.652;2024-02-21T16:09:10;135;125;